Hovedside
METAR-TAF:

METAR-TAF

Lufthavner :

Calais, Frankrike

breddegrad: 50-57-39N, lengdegrad: 001-57-05E, høyde over havet: 4 m

Gjeldene værobservasjon

Denne rapporten ble laget for 21 minutter siden, klokken 14:30 UTC
Vind 11 kt fra Øst-nordøst
Temperatur 26°C
Luftfuktighet 58%
Trykk 1020 hPa
Sikt 10 km eller mer
ingen skyer under 1500 m og ingen bygeskyer

METAR: LFAC 181430Z AUTO 06011KT CAVOK 26/17 Q1020

Tid: 16:51 (14:51 UTC)


TAF: fraværende

Værobservasjoner og værvarsel for over 4000 flyplasser (METAR- og TAF-rapporter).

Tilgjengelige stasjoner er representert av de røde og gule prikkene på kartet.

Hold musepekeren over prikken for å se navnet på stasjonen.

Klikk så for å se værobservasjoner og -varsler.

For å forandre kartet kan du klikke på den grønne knappen med svart kryss for å zoome inn, på den grønne knappen med strek for å zoome ut, eller på de grønne pilene for å se tilstøtende kart.


METAR-TAF: